Flight Track Log - Related Links

Times and Time Zones

All times are in EDT time to prevent confusion due to time zone crossing. See the FDX1347 flight status page for this flight to view local times or setup timezone preferences in your user account.

Time Position Orientation Groundspeed Altitude Reporting Facility
EDT Latitude Longitude Course Direction KTS MPH feet Rate Location/Type
Wed 09:59:06 PM 42.7214 -73.8078 251° West 166 191 1,700  Level Boston Center
Wed 10:00:11 PM 42.7039 -73.8781 251° West 257 296 3,400 2,521 Climbing Boston Center
Wed 10:06:12 PM 43.0260 -74.4780 251° West 425 489 19,600 2,697 Climbing FlightAware ADS-B
Wed 10:06:27 PM 43.0150 -74.5150 248° West 429 494 20,300 2,526 Climbing FlightAware ADS-B
Wed 10:06:50 PM 42.9870 -74.5660 233° Southwest 439 505 21,200 2,512 Climbing FlightAware ADS-B
Wed 10:07:10 PM 42.9530 -74.5980 215° Southwest 444 511 22,100 2,286 Climbing FlightAware ADS-B
Wed 10:07:32 PM 42.9070 -74.6130 193° South 456 525 22,800 982 Climbing FlightAware ADS-B
Wed 10:08:05 PM 42.8380 -74.6110 179° South 467 537 23,000 171 Climbing FlightAware ADS-B
Wed 10:08:42 PM 42.7600 -74.6060 177° South 465 535 23,000  Level FlightAware ADS-B
Wed 10:09:04 PM 42.7100 -74.6090 183° South 466 536 23,000  Level FlightAware ADS-B
Wed 10:09:16 PM 42.6860 -74.6180 195° South 462 532 23,000  Level FlightAware ADS-B
Wed 10:09:30 PM 42.6590 -74.6360 206° Southwest 457 526 23,000 240 Level FlightAware ADS-B
Wed 10:10:06 PM 42.6080 -74.7090 227° Southwest 448 516 23,200 1,083 Climbing FlightAware ADS-B
Wed 10:10:42 PM 42.5670 -74.7940 237° Southwest 456 525 24,300 2,000 Climbing FlightAware ADS-B
Wed 10:11:00 PM 42.5450 -74.8400 237° Southwest 459 528 25,000 1,818 Climbing FlightAware ADS-B
Wed 10:11:48 PM 42.4900 -74.9520 236° Southwest 471 542 26,300 1,596 Climbing FlightAware ADS-B
Wed 10:12:34 PM 42.4330 -75.0690 237° Southwest 480 552 27,500 1,535 Climbing FlightAware ADS-B
Wed 10:13:14 PM 42.3840 -75.1700 237° Southwest 486 559 28,500 1,895 Climbing FlightAware ADS-B
Wed 10:13:50 PM 42.3430 -75.2610 239° Southwest 480 552 29,900 2,182 Climbing FlightAware ADS-B
Wed 10:14:20 PM 42.3090 -75.3440 241° Southwest 478 550 30,900 2,118 Climbing FlightAware ADS-B
Wed 10:14:58 PM 42.2690 -75.4430 241° Southwest 471 542 32,300 2,027 Climbing FlightAware ADS-B
Wed 10:15:34 PM 42.2330 -75.5330 242° Southwest 467 537 33,400 1,500 Climbing FlightAware ADS-B
Wed 10:16:10 PM 42.1970 -75.6230 242° Southwest 472 543 34,100 1,250 Climbing FlightAware ADS-B
Wed 10:16:46 PM 42.1580 -75.7220 242° Southwest 474 545 34,900 1,500 Climbing FlightAware ADS-B
Wed 10:17:18 PM 42.1250 -75.8020 241° Southwest 470 541 35,800 1,588 Climbing FlightAware ADS-B
Wed 10:17:54 PM 42.0870 -75.8940 241° Southwest 466 536 36,700 1,333 Climbing FlightAware ADS-B
Wed 10:18:30 PM 42.0500 -75.9850 241° Southwest 464 534 37,400 1,059 Climbing FlightAware ADS-B
Wed 10:19:02 PM 42.0160 -76.0680 241° Southwest 465 535 37,900 957 Climbing FlightAware ADS-B
Wed 10:19:39 PM 41.9780 -76.1590 241° Southwest 465 535 38,500 857 Climbing FlightAware ADS-B
Wed 10:20:12 PM 41.9430 -76.2450 241° Southwest 468 539 38,900 1,043 Climbing FlightAware ADS-B
Wed 10:20:48 PM 41.9070 -76.3310 241° Southwest 460 529 39,700 917 Climbing FlightAware ADS-B
Wed 10:21:24 PM 41.8700 -76.4190 241° Southwest 446 513 40,000 247 Climbing FlightAware ADS-B
Wed 10:22:01 PM 41.8340 -76.5080 242° Southwest 439 505 40,000  Level FlightAware ADS-B
Wed 10:22:32 PM 41.8010 -76.5860 240° Southwest 443 510 40,000  Level FlightAware ADS-B
Wed 10:23:08 PM 41.7660 -76.6680 240° Southwest 447 514 40,000  Level FlightAware ADS-B
Wed 10:23:44 PM 41.7300 -76.7550 241° Southwest 452 520 40,000  Level FlightAware ADS-B
Wed 10:24:15 PM 41.6970 -76.8310 240° Southwest 455 524 40,000  Level FlightAware ADS-B
Wed 10:24:50 PM 41.6640 -76.9100 241° Southwest 458 527 40,000  Level FlightAware ADS-B
Wed 10:25:30 PM 41.6230 -77.0060 240° Southwest 460 529 40,000  Level FlightAware ADS-B
Wed 10:26:05 PM 41.5840 -77.0980 240° Southwest 459 528 40,000  Level FlightAware ADS-B
Wed 10:26:35 PM 41.5530 -77.1710 240° Southwest 459 528 40,000  Level FlightAware ADS-B
Wed 10:27:10 PM 41.5160 -77.2570 240° Southwest 459 528 40,000  Level FlightAware ADS-B
Wed 10:27:50 PM 41.4730 -77.3580 240° Southwest 458 527 40,000  Level FlightAware ADS-B
Wed 10:28:20 PM 41.4410 -77.4310 240° Southwest 456 525 40,000  Level FlightAware ADS-B
Wed 10:28:55 PM 41.4040 -77.5160 240° Southwest 456 525 40,000  Level FlightAware ADS-B
Wed 10:29:32 PM 41.3640 -77.6090 240° Southwest 456 525 40,000  Level FlightAware ADS-B
Wed 10:30:11 PM 41.3220 -77.7060 240° Southwest 456 525 40,000  Level FlightAware ADS-B
Wed 10:30:41 PM 41.2910 -77.7790 241° Southwest 456 525 40,000  Level FlightAware ADS-B
Wed 10:31:26 PM 41.2460 -77.8800 239° Southwest 455 524 40,000  Level FlightAware ADS-B
Wed 10:32:05 PM 41.2040 -77.9740 239° Southwest 454 522 40,000  Level FlightAware ADS-B
Wed 10:32:40 PM 41.1660 -78.0610 240° Southwest 452 520 40,000  Level FlightAware ADS-B
Wed 10:33:15 PM 41.1300 -78.1420 239° Southwest 450 518 40,000  Level FlightAware ADS-B
Wed 10:33:50 PM 41.0940 -78.2250 240° Southwest 448 516 40,000  Level FlightAware ADS-B
Wed 10:34:25 PM 41.0580 -78.3050 239° Southwest 447 514 40,000  Level FlightAware ADS-B
Wed 10:34:56 PM 41.0280 -78.3740 240° Southwest 447 514 40,000  Level FlightAware ADS-B
Wed 10:35:36 PM 40.9850 -78.4700 239° Southwest 465 535 40,000  Level FlightAware ADS-B
Wed 10:36:20 PM 40.9380 -78.5760 240° Southwest 447 514 40,000  Level FlightAware ADS-B
Wed 10:36:55 PM 40.8980 -78.6630 239° Southwest 448 516 40,000  Level FlightAware ADS-B
Wed 10:37:30 PM 40.8620 -78.7460 240° Southwest 450 518 40,000  Level FlightAware ADS-B
Wed 10:38:00 PM 40.8300 -78.8140 238° Southwest 450 518 40,000  Level FlightAware ADS-B
Wed 10:38:40 PM 40.7880 -78.9060 239° Southwest 450 518 40,000  Level FlightAware ADS-B
Wed 10:39:20 PM 40.7410 -79.0120 240° Southwest 450 518 40,000  Level FlightAware ADS-B
Wed 10:40:00 PM 40.6990 -79.1040 239° Southwest 451 519 40,000  Level FlightAware ADS-B
Wed 10:40:28 PM 40.6680 -79.1700 238° Southwest 452 520 40,000  Level FlightAware ADS-B
Wed 10:41:08 PM 40.6260 -79.2620 239° Southwest 452 520 40,000  Level FlightAware ADS-B
Wed 10:41:44 PM 40.5860 -79.3490 239° Southwest 453 521 40,000  Level FlightAware ADS-B
Wed 10:42:18 PM 40.5480 -79.4320 239° Southwest 454 522 40,000  Level FlightAware ADS-B
Wed 10:42:53 PM 40.5110 -79.5120 239° Southwest 453 521 40,000  Level FlightAware ADS-B
Wed 10:43:25 PM 40.4770 -79.5870 239° Southwest 452 520 40,000  Level FlightAware ADS-B
Wed 10:44:02 PM 40.4370 -79.6710 238° Southwest 451 519 40,000  Level FlightAware ADS-B
Wed 10:44:39 PM 40.3950 -79.7600 238° Southwest 451 519 40,000  Level FlightAware ADS-B
Wed 10:45:11 PM 40.3600 -79.8350 239° Southwest 452 520 40,000  Level FlightAware ADS-B
Wed 10:45:47 PM 40.3220 -79.9170 239° Southwest 452 520 40,000  Level FlightAware ADS-B
Wed 10:46:22 PM 40.2840 -79.9990 239° Southwest 453 521 40,000  Level FlightAware ADS-B
Wed 10:46:59 PM 40.2430 -80.0870 239° Southwest 454 522 40,000  Level FlightAware ADS-B
Wed 10:47:31 PM 40.2100 -80.1550 238° Southwest 454 522 40,000  Level FlightAware ADS-B
Wed 10:48:06 PM 40.1710 -80.2390 239° Southwest 455 524 40,000  Level FlightAware ADS-B
Wed 10:48:41 PM 40.1310 -80.3240 238° Southwest 454 522 40,000  Level FlightAware ADS-B
Wed 10:49:16 PM 40.0910 -80.4080 238° Southwest 454 522 40,000  Level FlightAware ADS-B
Wed 10:49:51 PM 40.0520 -80.4890 238° Southwest 454 522 40,000  Level FlightAware ADS-B
Wed 10:50:25 PM 40.0150 -80.5660 238° Southwest 453 521 40,000  Level FlightAware ADS-B
Wed 10:51:02 PM 39.9870 -80.6260 239° Southwest 452 520 40,000  Level FlightAware ADS-B
Wed 10:51:47 PM 39.9390 -80.7250 238° Southwest 450 518 40,000  Level FlightAware ADS-B
Wed 10:52:27 PM 39.8980 -80.8100 238° Southwest 447 514 40,000  Level FlightAware ADS-B
Wed 10:52:59 PM 39.8450 -80.9210 238° Southwest 445 512 40,000  Level FlightAware ADS-B
Wed 10:53:37 PM 39.8030 -81.0070 238° Southwest 445 512 40,000  Level FlightAware ADS-B
Wed 10:54:12 PM 39.7650 -81.0840 237° Southwest 444 511 40,000  Level FlightAware ADS-B
Wed 10:54:48 PM 39.7240 -81.1700 238° Southwest 444 511 40,000  Level FlightAware ADS-B
Wed 10:55:21 PM 39.6890 -81.2420 238° Southwest 444 511 40,000  Level FlightAware ADS-B
Wed 10:55:53 PM 39.6540 -81.3140 238° Southwest 444 511 40,000  Level FlightAware ADS-B
Wed 10:56:29 PM 39.6150 -81.3920 237° Southwest 445 512 40,000  Level FlightAware ADS-B
Wed 10:57:05 PM 39.5730 -81.4760 237° Southwest 446 513 40,000  Level FlightAware ADS-B
Wed 10:57:42 PM 39.5330 -81.5590 238° Southwest 448 516 40,000  Level FlightAware ADS-B
Wed 10:58:16 PM 39.4940 -81.6360 237° Southwest 449 517 40,000  Level FlightAware ADS-B
Wed 10:58:50 PM 39.4570 -81.7130 238° Southwest 450 518 40,000  Level FlightAware ADS-B
Wed 10:59:25 PM 39.4160 -81.7940 237° Southwest 450 518 40,000  Level FlightAware ADS-B
Wed 11:00:01 PM 39.3760 -81.8740 237° Southwest 451 519 40,000  Level FlightAware ADS-B
Wed 11:00:38 PM 39.3340 -81.9600 238° Southwest 452 520 40,000  Level FlightAware ADS-B
Wed 11:01:10 PM 39.2980 -82.0300 236° Southwest 452 520 40,000  Level FlightAware ADS-B
Wed 11:01:47 PM 39.2560 -82.1140 237° Southwest 452 520 40,000  Level FlightAware ADS-B
Wed 11:02:23 PM 39.2140 -82.1980 237° Southwest 453 521 40,000  Level FlightAware ADS-B
Wed 11:02:55 PM 39.1780 -82.2680 236° Southwest 454 522 40,000  Level FlightAware ADS-B
Wed 11:03:33 PM 39.1350 -82.3540 237° Southwest 454 522 40,000  Level FlightAware ADS-B
Wed 11:04:05 PM 39.0980 -82.4260 237° Southwest 454 522 40,000  Level FlightAware ADS-B
Wed 11:04:41 PM 39.0570 -82.5080 237° Southwest 453 521 40,000  Level FlightAware ADS-B
Wed 11:05:17 PM 39.0150 -82.5910 237° Southwest 452 520 40,000  Level FlightAware ADS-B
Wed 11:05:51 PM 38.9750 -82.6680 236° Southwest 454 522 40,000  Level FlightAware ADS-B
Wed 11:06:27 PM 38.9350 -82.7470 237° Southwest 454 522 40,000  Level FlightAware ADS-B
Wed 11:07:03 PM 38.8930 -82.8280 236° Southwest 454 522 40,000  Level FlightAware ADS-B
Wed 11:07:37 PM 38.8530 -82.9070 237° Southwest 454 522 40,000  Level FlightAware ADS-B
Wed 11:08:11 PM 38.8140 -82.9810 236° Southwest 455 524 40,000  Level FlightAware ADS-B
Wed 11:08:47 PM 38.7720 -83.0640 237° Southwest 454 522 40,000  Level FlightAware ADS-B
Wed 11:09:19 PM 38.7340 -83.1360 236° Southwest 454 522 40,000  Level FlightAware ADS-B
Wed 11:09:56 PM 38.6940 -83.2120 236° Southwest 454 522 40,000  Level FlightAware ADS-B
Wed 11:10:27 PM 38.6570 -83.2840 237° Southwest 454 522 40,000  Level FlightAware ADS-B
Wed 11:11:08 PM 38.6090 -83.3750 236° Southwest 454 522 40,000  Level FlightAware ADS-B
Wed 11:11:34 PM 38.5780 -83.4360 237° Southwest 455 524 40,000  Level FlightAware ADS-B
Wed 11:12:22 PM 38.5210 -83.5430 236° Southwest 454 522 40,000  Level FlightAware ADS-B
Wed 11:12:58 PM 38.4790 -83.6250 237° Southwest 456 525 40,000  Level FlightAware ADS-B
Wed 11:13:30 PM 38.4420 -83.6940 236° Southwest 456 525 40,000  Level FlightAware ADS-B
Wed 11:14:06 PM 38.3990 -83.7750 236° Southwest 456 525 40,000  Level FlightAware ADS-B
Wed 11:14:46 PM 38.3510 -83.8660 236° Southwest 456 525 40,000  Level FlightAware ADS-B
Wed 11:15:18 PM 38.3140 -83.9350 236° Southwest 457 526 40,000  Level FlightAware ADS-B
Wed 11:15:54 PM 38.2720 -84.0150 236° Southwest 457 526 40,000  Level FlightAware ADS-B
Wed 11:16:28 PM 38.2310 -84.0910 236° Southwest 457 526 40,000  Level FlightAware ADS-B
Wed 11:17:04 PM 38.1880 -84.1710 236° Southwest 457 526 40,000  Level FlightAware ADS-B
Wed 11:17:36 PM 38.1500 -84.2440 237° Southwest 457 526 40,000  Level FlightAware ADS-B
Wed 11:18:14 PM 38.1050 -84.3260 235° Southwest 457 526 40,000  Level FlightAware ADS-B
Wed 11:18:46 PM 38.0670 -84.3970 236° Southwest 458 527 40,000  Level FlightAware ADS-B
Wed 11:19:24 PM 38.0210 -84.4810 235° Southwest 459 528 40,000  Level FlightAware ADS-B
Wed 11:20:00 PM 37.9780 -84.5610 236° Southwest 458 527 40,000  Level FlightAware ADS-B
Wed 11:20:32 PM 37.9400 -84.6320 236° Southwest 457 526 40,000  Level FlightAware ADS-B
Wed 11:21:08 PM 37.8960 -84.7130 235° Southwest 456 525 40,000  Level FlightAware ADS-B
Wed 11:21:35 PM 37.8639 -84.7721 235° Southwest 457 526 40,000  Level FlightAware ADS-B
Wed 11:22:14 PM 37.8163 -84.8581 235° Southwest 458 527 40,000  Level FlightAware ADS-B
Wed 11:22:45 PM 37.7790 -84.9263 235° Southwest 458 527 40,000  Level FlightAware ADS-B
Wed 11:23:15 PM 37.7426 -84.9924 235° Southwest 459 528 40,000  Level FlightAware ADS-B
Wed 11:23:46 PM 37.7061 -85.0585 235° Southwest 459 528 40,000  Level FlightAware ADS-B
Wed 11:24:16 PM 37.6696 -85.1265 236° Southwest 459 528 40,000  Level FlightAware ADS-B
Wed 11:24:46 PM 37.6329 -85.1924 235° Southwest 458 527 40,000  Level FlightAware ADS-B
Wed 11:25:16 PM 37.5954 -85.2571 234° Southwest 458 527 40,000  Level FlightAware ADS-B
Wed 11:25:43 PM 37.5611 -85.3148 233° Southwest 458 527 40,000  Level FlightAware ADS-B
Wed 11:26:13 PM 37.5245 -85.3804 235° Southwest 458 527 40,000  Level FlightAware ADS-B
Wed 11:26:44 PM 37.4884 -85.4463 235° Southwest 458 527 40,000  Level FlightAware ADS-B
Wed 11:27:15 PM 37.4511 -85.5144 235° Southwest 457 526 40,000  Level FlightAware ADS-B
Wed 11:27:46 PM 37.4133 -85.5822 235° Southwest 458 527 40,000  Level FlightAware ADS-B
Wed 11:28:16 PM 37.3767 -85.6474 235° Southwest 458 527 40,000  Level FlightAware ADS-B
Wed 11:28:46 PM 37.3399 -85.7150 236° Southwest 458 527 40,000  Level FlightAware ADS-B
Wed 11:29:16 PM 37.3031 -85.7801 235° Southwest 457 526 40,000  Level FlightAware ADS-B
Wed 11:29:46 PM 37.2664 -85.8451 235° Southwest 457 526 40,000  Level FlightAware ADS-B
Wed 11:30:20 PM 37.2253 -85.9189 235° Southwest 456 525 40,000  Level FlightAware ADS-B
Wed 11:31:00 PM 37.1765 -86.0052 235° Southwest 456 525 40,000  Level FlightAware ADS-B
Wed 11:31:34 PM 37.1352 -86.0788 235° Southwest 456 525 40,000  Level FlightAware ADS-B
Wed 11:32:05 PM 37.0984 -86.1434 234° Southwest 457 526 40,000  Level FlightAware ADS-B
Wed 11:32:37 PM 37.0591 -86.2124 234° Southwest 458 527 40,000  Level FlightAware ADS-B
Wed 11:33:38 PM 36.9850 -86.3420 234° Southwest 458 527 40,000  Level FlightAware ADS-B
Wed 11:34:17 PM 36.9351 -86.4302 235° Southwest 459 528 40,000  Level FlightAware ADS-B
Wed 11:34:35 PM 36.9123 -86.4659 231° Southwest 460 529 40,000  Level FlightAware ADS-B
Wed 11:35:05 PM 36.8708 -86.5292 231° Southwest 461 531 40,000  Level FlightAware ADS-B
Wed 11:36:00 PM 36.7950 -86.6410 230° Southwest 462 532 40,000  Level FlightAware ADS-B
Wed 11:36:31 PM 36.7530 -86.7020 229° Southwest 462 532 40,000  Level FlightAware ADS-B
Wed 11:36:41 PM 36.7375 -86.7243 229° Southwest 463 533 40,000  Level FlightAware ADS-B
Wed 11:37:12 PM 36.6950 -86.7872 230° Southwest 463 533 40,000  Level FlightAware ADS-B
Wed 11:37:43 PM 36.6540 -86.8460 229° Southwest 462 532 40,000  Level FlightAware ADS-B
Wed 11:38:20 PM 36.6010 -86.9250 230° Southwest 461 531 40,000  Level FlightAware ADS-B
Wed 11:38:54 PM 36.5550 -86.9920 229° Southwest 461 531 40,000  Level FlightAware ADS-B
Wed 11:39:27 PM 36.5120 -87.0550 230° Southwest 462 532 40,000 -203 Level FlightAware ADS-B
Wed 11:39:53 PM 36.4715 -87.1130 229° Southwest 460 529 39,800 -957 Descending FlightAware ADS-B
Wed 11:40:36 PM 36.4130 -87.1970 229° Southwest 462 532 38,900 -1,200 Descending FlightAware ADS-B
Wed 11:41:13 PM 36.3620 -87.2720 230° Southwest 467 537 38,200 -1,068 Descending FlightAware ADS-B
Wed 11:41:49 PM 36.3110 -87.3460 229° Southwest 469 540 37,600 -1,014 Descending FlightAware ADS-B
Wed 11:42:24 PM 36.2610 -87.4170 229° Southwest 471 542 37,000 -971 Descending FlightAware ADS-B
Wed 11:42:57 PM 36.2170 -87.4810 230° Southwest 473 544 36,500 -857 Descending FlightAware ADS-B
Wed 11:43:34 PM 36.1620 -87.5590 229° Southwest 473 544 36,000 -904 Descending FlightAware ADS-B
Wed 11:44:10 PM 36.1100 -87.6350 230° Southwest 475 547 35,400 -1,164 Descending FlightAware ADS-B
Wed 11:44:41 PM 36.0640 -87.6990 228° Southwest 482 555 34,700 -1,254 Descending FlightAware ADS-B
Wed 11:45:17 PM 36.0110 -87.7740 229° Southwest 490 564 34,000 -1,083 Descending FlightAware ADS-B
Wed 11:45:53 PM 35.9590 -87.8490 229° Southwest 494 568 33,400 -1,029 Descending FlightAware ADS-B
Wed 11:46:27 PM 35.9070 -87.9240 229° Southwest 495 570 32,800 -923 Descending FlightAware ADS-B
Wed 11:46:58 PM 35.8610 -87.9870 228° Southwest 494 568 32,400 -316 Descending FlightAware ADS-B
Wed 11:47:43 PM 35.8040 -88.0680 229° Southwest 494 568 32,400  Level FlightAware ADS-B
Wed 11:48:19 PM 35.7580 -88.1330 229° Southwest 494 568 32,400  Level FlightAware ADS-B
Wed 11:48:55 PM 35.7120 -88.1980 229° Southwest 494 568 32,400  Level FlightAware ADS-B
Wed 11:49:32 PM 35.6650 -88.2650 229° Southwest 494 568 32,400  Level FlightAware ADS-B
Wed 11:50:08 PM 35.6190 -88.3300 229° Southwest 494 568 32,400  Level FlightAware ADS-B
Wed 11:50:44 PM 35.5740 -88.3940 229° Southwest 494 568 32,400  Level FlightAware ADS-B
Wed 11:51:20 PM 35.5280 -88.4590 229° Southwest 494 568 32,400  Level FlightAware ADS-B
Wed 11:51:57 PM 35.4800 -88.5260 229° Southwest 494 568 32,400  Level FlightAware ADS-B
Wed 11:52:33 PM 35.4350 -88.5910 230° Southwest 494 568 32,400  Level FlightAware ADS-B
Wed 11:53:09 PM 35.3890 -88.6560 229° Southwest 494 568 32,400  Level FlightAware ADS-B
Wed 11:53:45 PM 35.3430 -88.7200 229° Southwest 494 568 32,400  Level FlightAware ADS-B
Wed 11:54:22 PM 35.2960 -88.7870 229° Southwest 494 568 32,400  Level FlightAware ADS-B
Wed 11:54:59 PM 35.2490 -88.8530 229° Southwest 494 568 32,400  Level FlightAware ADS-B
Wed 11:55:33 PM 35.2050 -88.9140 229° Southwest 494 568 32,400  Level FlightAware ADS-B
Wed 11:56:09 PM 35.1590 -88.9790 229° Southwest 494 568 32,400  Level FlightAware ADS-B
Wed 11:56:45 PM 35.1130 -89.0430 229° Southwest 494 568 32,400 -11,843 Level FlightAware ADS-B
Wed 11:58:04 PM 35.0544 -89.0431 229° Southwest 318 366 9,700 -10,403 Descending Memphis Center
Wed 11:59:04 PM 35.0367 -89.1397 257° West 292 336 8,300 -1,300 Descending Memphis Center
Thu 12:00:04 AM 35.0378 -89.2514 271° West 292 336 7,100 -1,150 Descending Memphis Center
Thu 12:01:04 AM 35.0408 -89.3450 272° West 292 336 6,000 -550 Descending Memphis Center
Thu 12:02:04 AM 35.0433 -89.4236 272° West 256 295 6,000 -50 Level Memphis Center
Thu 12:03:04 AM 35.0461 -89.5047 272° West 243 280 5,900 -500 Descending Memphis Center
Thu 12:04:04 AM 35.0508 -89.5833 274° West 243 280 5,000 -950 Descending Memphis Center
Thu 12:05:04 AM 35.0514 -89.6619 271° West 236 272 4,000 -900 Descending Memphis Center
Thu 12:06:04 AM 35.0539 -89.7381 272° West 236 272 3,200 -650 Descending Memphis Center
Thu 12:07:04 AM 35.0542 -89.8042 270° West 219 252 2,700 -750 Descending Memphis Center
Thu 12:08:04 AM 35.0564 -89.8650 273° West 196 226 1,700 -850 Descending Memphis Center
Thu 12:09:04 AM 35.0567 -89.9081 270° West 157 181 1,000 -650 Descending Memphis Center
Thu 12:10:04 AM 35.0589 -89.9511 274° West 133 153 400 -350 Descending Memphis Center
Thu 12:11:04 AM 35.0589 -89.9942 270° West 133 153 300 -100 Descending Memphis Center
Thu 12:13:00 AM 35.0424 -89.9767 270° West  Level Estimated
Thu 12:20:00 AM 35.0424 -89.9767 270° West  Level Estimated
Thu 12:21:00 AM 35.0424 -89.9767 270° West  Level Estimated
Thu 12:22:00 AM 35.0424 -89.9767 270° West  Level Estimated
Thu 12:23:00 AM 35.0424 -89.9767 270° West  Level Estimated
Thu 12:24:00 AM 35.0424 -89.9767 270° West  Level Estimated
Thu 12:25:00 AM 35.0424 -89.9767 270° West  Level Estimated
Thu 12:26:00 AM 35.0424 -89.9767 270° West  Level Estimated

Login

Don't have an account? Register now (free) for customized features, flight alerts, and more!